sensor_id;sensor_type;location;lat;lon;timestamp;temperature;humidity
7378;DHT22;3730;50.856;12.776;2022-09-17T00:11:49;10.00;99.90
7378;DHT22;3730;50.856;12.776;2022-09-17T00:14:16;9.90;99.90
7378;DHT22;3730;50.856;12.776;2022-09-17T00:16:44;10.10;99.90
7378;DHT22;3730;50.856;12.776;2022-09-17T00:19:17;10.50;99.90
7378;DHT22;3730;50.856;12.776;2022-09-17T00:21:43;9.90;99.90
7378;DHT22;3730;50.856;12.776;2022-09-17T00:24:11;10.70;99.90
7378;DHT22;3730;50.856;12.776;2022-09-17T00:26:37;10.40;99.90
7378;DHT22;3730;50.856;12.776;2022-09-17T00:29:03;10.00;99.90
7378;DHT22;3730;50.856;12.776;2022-09-17T00:31:30;10.00;99.90
7378;DHT22;3730;50.856;12.776;2022-09-17T00:33:58;10.60;99.90
7378;DHT22;3730;50.856;12.776;2022-09-17T00:36:24;10.00;99.90
7378;DHT22;3730;50.856;12.776;2022-09-17T00:38:55;10.70;99.90
7378;DHT22;3730;50.856;12.776;2022-09-17T00:41:23;10.00;99.90
7378;DHT22;3730;50.856;12.776;2022-09-17T00:43:52;11.40;99.90
7378;DHT22;3730;50.856;12.776;2022-09-17T00:46:27;9.90;99.90
7378;DHT22;3730;50.856;12.776;2022-09-17T00:48:56;10.00;99.90
7378;DHT22;3730;50.856;12.776;2022-09-17T00:51:54;10.30;99.90
7378;DHT22;3730;50.856;12.776;2022-09-17T00:54:22;10.00;99.90
7378;DHT22;3730;50.856;12.776;2022-09-17T00:56:50;10.30;99.90
7378;DHT22;3730;50.856;12.776;2022-09-17T00:59:17;10.50;99.90
7378;DHT22;3730;50.856;12.776;2022-09-17T01:01:43;10.00;99.90
7378;DHT22;3730;50.856;12.776;2022-09-17T01:04:20;10.60;99.90
7378;DHT22;3730;50.856;12.776;2022-09-17T01:10:02;10.10;99.90
7378;DHT22;3730;50.856;12.776;2022-09-17T01:12:43;10.10;99.90
7378;DHT22;3730;50.856;12.776;2022-09-17T01:18:15;10.10;99.90
7378;DHT22;3730;50.856;12.776;2022-09-17T01:24:26;10.10;99.90
7378;DHT22;3730;50.856;12.776;2022-09-17T01:31:57;10.10;99.90
7378;DHT22;3730;50.856;12.776;2022-09-17T01:34:37;10.20;99.90
7378;DHT22;3730;50.856;12.776;2022-09-17T01:37:13;10.20;99.90
7378;DHT22;3730;50.856;12.776;2022-09-17T01:39:50;10.10;99.90
7378;DHT22;3730;50.856;12.776;2022-09-17T01:45:26;13.70;99.90
7378;DHT22;3730;50.856;12.776;2022-09-17T01:50:29;10.20;99.90
7378;DHT22;3730;50.856;12.776;2022-09-17T01:52:56;10.20;99.90
7378;DHT22;3730;50.856;12.776;2022-09-17T01:55:24;10.30;99.90
7378;DHT22;3730;50.856;12.776;2022-09-17T01:58:05;10.20;99.90
7378;DHT22;3730;50.856;12.776;2022-09-17T02:00:32;10.20;99.90
7378;DHT22;3730;50.856;12.776;2022-09-17T02:05:31;10.30;99.90
7378;DHT22;3730;50.856;12.776;2022-09-17T02:08:08;10.20;99.90
7378;DHT22;3730;50.856;12.776;2022-09-17T02:10:44;10.30;99.90
7378;DHT22;3730;50.856;12.776;2022-09-17T02:13:19;10.30;99.90
7378;DHT22;3730;50.856;12.776;2022-09-17T02:15:56;10.20;99.90
7378;DHT22;3730;50.856;12.776;2022-09-17T02:18:28;10.80;99.90
7378;DHT22;3730;50.856;12.776;2022-09-17T02:26:23;10.30;99.90
7378;DHT22;3730;50.856;12.776;2022-09-17T02:28:55;10.50;99.90
7378;DHT22;3730;50.856;12.776;2022-09-17T02:31:23;10.30;99.90
7378;DHT22;3730;50.856;12.776;2022-09-17T02:33:52;10.30;99.90
7378;DHT22;3730;50.856;12.776;2022-09-17T02:36:19;10.30;99.90
7378;DHT22;3730;50.856;12.776;2022-09-17T02:38:45;10.40;99.90
7378;DHT22;3730;50.856;12.776;2022-09-17T02:52:15;10.20;99.90
7378;DHT22;3730;50.856;12.776;2022-09-17T02:57:18;10.10;99.90
7378;DHT22;3730;50.856;12.776;2022-09-17T02:59:58;10.10;99.90
7378;DHT22;3730;50.856;12.776;2022-09-17T03:02:35;10.00;99.90
7378;DHT22;3730;50.856;12.776;2022-09-17T03:05:03;10.00;99.90
7378;DHT22;3730;50.856;12.776;2022-09-17T03:07:30;10.00;99.90
7378;DHT22;3730;50.856;12.776;2022-09-17T03:09:57;11.10;99.90
7378;DHT22;3730;50.856;12.776;2022-09-17T03:12:22;10.00;99.90
7378;DHT22;3730;50.856;12.776;2022-09-17T03:14:49;10.70;99.90
7378;DHT22;3730;50.856;12.776;2022-09-17T03:17:14;9.90;99.90
7378;DHT22;3730;50.856;12.776;2022-09-17T03:19:40;10.60;99.90
7378;DHT22;3730;50.856;12.776;2022-09-17T03:22:06;9.80;99.90
7378;DHT22;3730;50.856;12.776;2022-09-17T03:24:31;9.80;99.90
7378;DHT22;3730;50.856;12.776;2022-09-17T03:26:57;9.80;99.90
7378;DHT22;3730;50.856;12.776;2022-09-17T03:29:22;9.80;99.90
7378;DHT22;3730;50.856;12.776;2022-09-17T03:31:48;9.80;99.90
7378;DHT22;3730;50.856;12.776;2022-09-17T03:34:14;10.60;99.90
7378;DHT22;3730;50.856;12.776;2022-09-17T03:36:39;9.90;99.90
7378;DHT22;3730;50.856;12.776;2022-09-17T03:39:05;9.70;99.90
7378;DHT22;3730;50.856;12.776;2022-09-17T03:41:31;9.70;99.90
7378;DHT22;3730;50.856;12.776;2022-09-17T03:43:56;11.40;99.90
7378;DHT22;3730;50.856;12.776;2022-09-17T03:46:22;9.60;99.90
7378;DHT22;3730;50.856;12.776;2022-09-17T03:48:48;9.60;99.90
7378;DHT22;3730;50.856;12.776;2022-09-17T03:51:13;9.60;99.90
7378;DHT22;3730;50.856;12.776;2022-09-17T03:53:39;9.60;99.90
7378;DHT22;3730;50.856;12.776;2022-09-17T03:56:05;10.60;99.90
7378;DHT22;3730;50.856;12.776;2022-09-17T03:58:32;9.60;99.90
7378;DHT22;3730;50.856;12.776;2022-09-17T04:00:58;10.30;99.90
7378;DHT22;3730;50.856;12.776;2022-09-17T04:03:24;9.50;99.90
7378;DHT22;3730;50.856;12.776;2022-09-17T04:05:50;9.50;99.90
7378;DHT22;3730;50.856;12.776;2022-09-17T04:08:16;9.50;99.90
7378;DHT22;3730;50.856;12.776;2022-09-17T07:31:12;9.40;99.90
7378;DHT22;3730;50.856;12.776;2022-09-17T07:33:38;11.30;99.90
7378;DHT22;3730;50.856;12.776;2022-09-17T07:36:06;10.80;99.90
7378;DHT22;3730;50.856;12.776;2022-09-17T07:38:32;10.90;99.90
7378;DHT22;3730;50.856;12.776;2022-09-17T07:41:04;10.00;99.90
7378;DHT22;3730;50.856;12.776;2022-09-17T07:43:32;10.10;99.90
7378;DHT22;3730;50.856;12.776;2022-09-17T07:45:59;10.40;99.90
7378;DHT22;3730;50.856;12.776;2022-09-17T07:48:26;10.10;99.90
7378;DHT22;3730;50.856;12.776;2022-09-17T07:50:53;10.80;99.90
7378;DHT22;3730;50.856;12.776;2022-09-17T07:53:19;11.00;99.90
7378;DHT22;3730;50.856;12.776;2022-09-17T16:02:08;10.20;99.90
7378;DHT22;3730;50.856;12.776;2022-09-17T16:04:48;14.20;60.10
7378;DHT22;3730;50.856;12.776;2022-09-17T16:07:28;14.00;63.50
7378;DHT22;3730;50.856;12.776;2022-09-17T16:09:54;13.80;64.70
7378;DHT22;3730;50.856;12.776;2022-09-17T16:12:25;13.60;66.60
7378;DHT22;3730;50.856;12.776;2022-09-17T20:05:03;13.40;66.70
7378;DHT22;3730;50.856;12.776;2022-09-17T21:16:29;9.20;99.90
7378;DHT22;3730;50.856;12.776;2022-09-17T21:18:56;8.60;99.90
7378;DHT22;3730;50.856;12.776;2022-09-17T21:21:22;8.60;99.90
7378;DHT22;3730;50.856;12.776;2022-09-17T21:23:48;8.60;99.90
7378;DHT22;3730;50.856;12.776;2022-09-17T21:26:20;8.70;99.90
7378;DHT22;3730;50.856;12.776;2022-09-17T21:28:47;8.70;99.90
7378;DHT22;3730;50.856;12.776;2022-09-17T21:31:15;8.70;99.90
7378;DHT22;3730;50.856;12.776;2022-09-17T21:33:42;8.70;99.90
7378;DHT22;3730;50.856;12.776;2022-09-17T21:38:35;8.70;99.90
7378;DHT22;3730;50.856;12.776;2022-09-17T21:41:03;8.70;99.90
7378;DHT22;3730;50.856;12.776;2022-09-17T21:43:30;8.70;99.90
7378;DHT22;3730;50.856;12.776;2022-09-17T21:46:06;8.80;99.90
7378;DHT22;3730;50.856;12.776;2022-09-17T21:48:36;8.80;99.90
7378;DHT22;3730;50.856;12.776;2022-09-17T21:51:05;8.70;99.90
7378;DHT22;3730;50.856;12.776;2022-09-17T21:53:32;8.70;99.90
7378;DHT22;3730;50.856;12.776;2022-09-17T21:56:06;8.70;99.90
7378;DHT22;3730;50.856;12.776;2022-09-17T21:58:32;9.10;99.90
7378;DHT22;3730;50.856;12.776;2022-09-17T22:01:06;8.70;99.90
7378;DHT22;3730;50.856;12.776;2022-09-17T22:03:32;8.70;99.90
7378;DHT22;3730;50.856;12.776;2022-09-17T22:06:03;8.60;99.90
7378;DHT22;3730;50.856;12.776;2022-09-17T22:08:31;8.70;99.90
7378;DHT22;3730;50.856;12.776;2022-09-17T22:11:09;9.80;99.90
7378;DHT22;3730;50.856;12.776;2022-09-17T22:13:36;8.50;99.90
7378;DHT22;3730;50.856;12.776;2022-09-17T22:16:02;8.40;99.90
7378;DHT22;3730;50.856;12.776;2022-09-17T22:18:33;10.30;99.90
7378;DHT22;3730;50.856;12.776;2022-09-17T22:26:03;8.20;99.90
7378;DHT22;3730;50.856;12.776;2022-09-17T22:28:29;8.20;99.90
7378;DHT22;3730;50.856;12.776;2022-09-17T22:30:55;8.30;99.90
7378;DHT22;3730;50.856;12.776;2022-09-17T22:33:21;8.60;99.90
7378;DHT22;3730;50.856;12.776;2022-09-17T22:35:47;8.20;99.90
7378;DHT22;3730;50.856;12.776;2022-09-17T22:38:12;8.30;99.90
7378;DHT22;3730;50.856;12.776;2022-09-17T22:40:38;8.30;99.90
7378;DHT22;3730;50.856;12.776;2022-09-17T22:43:03;8.30;99.90
7378;DHT22;3730;50.856;12.776;2022-09-17T22:45:29;8.30;99.90
7378;DHT22;3730;50.856;12.776;2022-09-17T22:47:54;9.30;99.90
7378;DHT22;3730;50.856;12.776;2022-09-17T22:50:20;9.30;99.90
7378;DHT22;3730;50.856;12.776;2022-09-17T22:52:46;8.40;99.90
7378;DHT22;3730;50.856;12.776;2022-09-17T22:55:12;9.60;99.90
7378;DHT22;3730;50.856;12.776;2022-09-17T22:57:38;8.40;99.90
7378;DHT22;3730;50.856;12.776;2022-09-17T23:00:04;8.40;99.90
7378;DHT22;3730;50.856;12.776;2022-09-17T23:02:31;8.40;99.90
7378;DHT22;3730;50.856;12.776;2022-09-17T23:04:56;9.20;99.90
7378;DHT22;3730;50.856;12.776;2022-09-17T23:07:22;9.60;99.90
7378;DHT22;3730;50.856;12.776;2022-09-17T23:09:48;8.20;99.90
7378;DHT22;3730;50.856;12.776;2022-09-17T23:12:15;8.80;99.90
7378;DHT22;3730;50.856;12.776;2022-09-17T23:14:41;8.20;99.90
7378;DHT22;3730;50.856;12.776;2022-09-17T23:17:06;8.10;99.90
7378;DHT22;3730;50.856;12.776;2022-09-17T23:19:32;8.60;99.90
7378;DHT22;3730;50.856;12.776;2022-09-17T23:21:57;8.10;99.90
7378;DHT22;3730;50.856;12.776;2022-09-17T23:24:23;8.30;99.90
7378;DHT22;3730;50.856;12.776;2022-09-17T23:26:49;8.20;99.90
7378;DHT22;3730;50.856;12.776;2022-09-17T23:29:15;8.20;99.90
7378;DHT22;3730;50.856;12.776;2022-09-17T23:31:41;8.20;99.90
7378;DHT22;3730;50.856;12.776;2022-09-17T23:34:06;8.20;99.90
7378;DHT22;3730;50.856;12.776;2022-09-17T23:36:35;10.80;99.90
7378;DHT22;3730;50.856;12.776;2022-09-17T23:39:01;8.20;99.90
7378;DHT22;3730;50.856;12.776;2022-09-17T23:41:30;8.90;99.90
7378;DHT22;3730;50.856;12.776;2022-09-17T23:43:58;8.80;99.90
7378;DHT22;3730;50.856;12.776;2022-09-17T23:46:26;9.70;99.90
7378;DHT22;3730;50.856;12.776;2022-09-17T23:48:53;9.60;99.90
7378;DHT22;3730;50.856;12.776;2022-09-17T23:51:23;8.80;99.90
7378;DHT22;3730;50.856;12.776;2022-09-17T23:53:49;9.20;99.90
7378;DHT22;3730;50.856;12.776;2022-09-17T23:56:18;9.00;99.90
7378;DHT22;3730;50.856;12.776;2022-09-17T23:58:44;8.20;99.90
